Hauptseite
METAR-TAF:

METAR-TAF

Flughäfen :

Flughafen Köln/Bonn

Köln, Deutschland

Breite: 50-52N, Länge: 007-10E, Höhe: 91 m

Beobachtung

Neuester Wetterbericht von vor 27 Minuten, um 19:20 UTC
Wind 9 kt aus Südost
Temperatur 14°C
Luftfeuchtigkeit 82%
Luftdruck 1010 hPa
Sichtweite 10 km oder mehr
Durchbrochene Bewölkung in der Höhe von 2700 ft

METAR: EDDK 241920Z 14009KT 9999 BKN027 14/11 Q1010 NOSIG

Zeit: 21:47 (19:47 UTC)

Prognose

Neuester Wetterbericht von vor 2 Stunden und 47 Minuten, um 17:00 UTC
Gültige Prognose vom 24 um 18 UTC bis 25 um 24 UTC
Wind 10 kt aus Süd/Südost
Sichtweite 10 km oder mehr
Durchbrochene Bewölkung in der Höhe von 3000 ft
Zeitweise
vom 25 um 09 UTC bis 25 um 24 UTC
Regen

TAF: EDDK 241700Z 2418/2524 16010KT 9999 BKN030 TEMPO 2509/2524 RA

Wetterbeobachtungen und Prognosen von mehr als 4000 Flughäfen (METAR und TAF Bericht).

Die verfügbaren Stationen werden durch gelbe und rote Markierungen auf der Karte dargestellt.

Führen Sie die Maus auf sie, um den Namen der Station zu sehen.

Darauf klicken, um die Beobachtung von Wetterbeobachtungen und Prognosen zu sehen.

Um die Karte zu ändern : klicken Sie auf den grünen Tasten mit einem schwarzen Kreuz Zum Vergrößern, auf den grünen Button mit einem Gedankenstrich zu verkleinern, oder auf die grünen Pfeile für benachbarte Karten.


METAR-TAF: